« Back
NWS Peachtree City, Ga » Text Product » CSG Terminal Aerodrome Forecast


Printer-friendly Version
Current Version              Previous Versions:   1  2  3  4  5  6  7  8  9  

Terminal Aerodrome Forecast

453
FTUS42 KFFC 011100
TAFCSG
TAF
KCSG 011136Z 0112/0212 05006KT P6SM VCSH OVC012
     FM011500 06005KT P6SM VCSH BKN020
     FM011800 04004KT P6SM VCSH BKN035
     FM012300 05004KT P6SM VCSH SCT025 BKN080
     FM020800 07005KT P6SM OVC008=

USA.gov is the U.S. government's official web portal to all federal, state and local government web resources and services.